createdAt,value
2024-02-28T00:02:11.121Z,14.98
2024-02-28T00:04:38.590Z,18.15
2024-02-28T00:07:05.932Z,17.23
2024-02-28T00:09:33.381Z,15.90
2024-02-28T00:12:00.816Z,16.63
2024-02-28T00:14:28.187Z,17.98
2024-02-28T00:16:55.572Z,16.27
2024-02-28T00:19:26.331Z,15.82
2024-02-28T00:21:53.787Z,15.95
2024-02-28T00:24:21.204Z,17.25
2024-02-28T00:26:48.602Z,18.45
2024-02-28T00:29:15.997Z,17.00
2024-02-28T00:31:43.465Z,15.35
2024-02-28T00:34:09.971Z,16.55
2024-02-28T00:36:48.349Z,16.48
2024-02-28T00:39:22.847Z,17.58
2024-02-28T00:41:50.343Z,16.08
2024-02-28T00:44:17.728Z,18.27
2024-02-28T00:46:45.090Z,15.43
2024-02-28T00:49:12.469Z,16.63
2024-02-28T00:51:41.245Z,16.30
2024-02-28T00:54:09.429Z,17.75
2024-02-28T00:56:36.803Z,15.68
2024-02-28T00:59:04.216Z,14.85
2024-02-28T01:01:31.645Z,17.60
2024-02-28T01:03:59.099Z,16.85
2024-02-28T01:06:26.556Z,17.35
2024-02-28T01:08:55.280Z,17.10
2024-02-28T01:11:22.807Z,17.45
2024-02-28T01:13:50.213Z,18.08
2024-02-28T01:16:17.683Z,19.45
2024-02-28T01:18:45.217Z,17.02
2024-02-28T01:21:12.661Z,18.67
2024-02-28T01:23:40.083Z,21.45
2024-02-28T01:26:08.907Z,26.02
2024-02-28T01:28:36.272Z,24.05
2024-02-28T01:31:03.969Z,22.77
2024-02-28T01:33:31.355Z,22.77
2024-02-28T01:35:59.969Z,23.35
2024-02-28T01:38:27.871Z,23.00
2024-02-28T01:40:55.246Z,23.92
2024-02-28T01:43:23.946Z,22.75
2024-02-28T01:45:52.174Z,20.88
2024-02-28T01:48:19.767Z,22.83
2024-02-28T01:50:48.782Z,22.63
2024-02-28T01:53:18.256Z,23.00
2024-02-28T01:55:46.728Z,25.70
2024-02-28T01:58:14.101Z,21.90
2024-02-28T02:00:43.710Z,21.65
2024-02-28T02:03:11.254Z,22.42
2024-02-28T02:05:38.757Z,23.23
2024-02-28T02:08:06.591Z,22.27
2024-02-28T02:10:34.019Z,21.60
2024-02-28T02:13:06.061Z,20.70
2024-02-28T02:15:33.618Z,19.95
2024-02-28T02:18:02.468Z,18.02
2024-02-28T02:20:32.481Z,20.30
2024-02-28T02:23:01.656Z,20.58
2024-02-28T02:25:29.034Z,18.75
2024-02-28T02:27:56.415Z,19.02
2024-02-28T02:30:23.806Z,20.17
2024-02-28T02:32:51.251Z,22.10
2024-02-28T02:35:18.644Z,19.88
2024-02-28T02:37:49.069Z,17.70
2024-02-28T02:40:17.793Z,17.08
2024-02-28T02:42:45.372Z,22.08
2024-02-28T02:45:12.823Z,21.35
2024-02-28T02:47:40.287Z,17.88
2024-02-28T02:50:08.060Z,19.45
2024-02-28T02:52:35.435Z,21.10
2024-02-28T02:55:02.786Z,19.23
2024-02-28T02:57:31.803Z,18.25
2024-02-28T02:59:59.184Z,18.70
2024-02-28T03:02:26.562Z,20.23
2024-02-28T03:04:53.907Z,17.90
2024-02-28T03:07:21.270Z,20.00
2024-02-28T03:09:48.658Z,17.45
2024-02-28T03:12:16.042Z,19.33
2024-02-28T03:14:44.740Z,19.17
2024-02-28T03:17:12.119Z,18.25
2024-02-28T03:19:39.780Z,22.52
2024-02-28T03:22:07.238Z,21.40
2024-02-28T03:24:36.459Z,18.58
2024-02-28T03:27:03.969Z,19.20
2024-02-28T03:29:31.300Z,22.33
2024-02-28T03:32:00.247Z,23.20
2024-02-28T03:34:27.690Z,21.87
2024-02-28T03:36:55.113Z,18.02
2024-02-28T03:39:22.596Z,21.10
2024-02-28T03:41:49.950Z,18.63
2024-02-28T03:44:17.315Z,20.05
2024-02-28T03:46:44.680Z,19.40
2024-02-28T03:49:13.387Z,18.75
2024-02-28T03:51:41.759Z,19.77
2024-02-28T03:54:09.893Z,18.50
2024-02-28T03:56:37.308Z,18.83
2024-02-28T03:59:05.234Z,18.15
2024-02-28T04:01:32.923Z,18.85
2024-02-28T04:04:00.420Z,21.70
2024-02-28T04:06:29.215Z,18.30
2024-02-28T04:08:56.583Z,19.83
2024-02-28T04:11:25.145Z,18.42
2024-02-28T04:13:52.543Z,20.50
2024-02-28T04:16:19.960Z,19.55
2024-02-28T04:18:47.375Z,20.75
2024-02-28T04:21:14.776Z,22.77
2024-02-28T04:23:43.030Z,27.23
2024-02-28T04:26:10.676Z,72.90
2024-02-28T04:28:38.057Z,63.03
2024-02-28T04:31:05.435Z,60.00
2024-02-28T04:33:32.870Z,60.75
2024-02-28T04:36:00.264Z,41.70
2024-02-28T04:38:27.618Z,41.35
2024-02-28T04:40:56.353Z,26.10
2024-02-28T04:43:23.710Z,25.98
2024-02-28T04:45:51.151Z,22.80
2024-02-28T04:48:18.588Z,34.95
2024-02-28T04:50:46.021Z,29.63
2024-02-28T04:53:13.417Z,22.60
2024-02-28T04:55:40.892Z,20.23
2024-02-28T04:58:09.577Z,19.25
2024-02-28T05:00:36.998Z,23.17
2024-02-28T05:03:04.614Z,25.13
2024-02-28T05:05:32.012Z,26.40
2024-02-28T05:07:59.378Z,21.15
2024-02-28T05:10:26.799Z,21.63
2024-02-28T05:12:54.284Z,22.27
2024-02-28T05:15:23.929Z,31.10
2024-02-28T05:17:52.190Z,23.10
2024-02-28T05:20:19.647Z,22.45
2024-02-28T05:22:47.007Z,20.40
2024-02-28T05:25:14.369Z,20.23
2024-02-28T05:27:41.741Z,21.15
2024-02-28T05:30:09.588Z,20.52
2024-02-28T05:32:38.326Z,20.45
2024-02-28T05:35:06.097Z,22.75
2024-02-28T05:37:33.470Z,22.40
2024-02-28T05:40:00.846Z,27.88
2024-02-28T05:42:29.822Z,22.60
2024-02-28T05:44:57.227Z,23.98
2024-02-28T05:47:25.806Z,25.83
2024-02-28T05:49:56.918Z,23.42
2024-02-28T05:52:24.289Z,20.35
2024-02-28T05:54:51.667Z,22.02
2024-02-28T05:57:19.112Z,20.55
2024-02-28T05:59:46.551Z,21.25
2024-02-28T06:02:13.946Z,24.92
2024-02-28T06:04:41.408Z,24.10
2024-02-28T06:07:10.457Z,23.08
2024-02-28T06:09:39.144Z,22.15
2024-02-28T06:12:06.732Z,26.75
2024-02-28T06:14:34.094Z,21.65
2024-02-28T06:17:01.785Z,20.48
2024-02-28T06:19:29.275Z,21.98
2024-02-28T06:21:56.714Z,24.55
2024-02-28T06:24:25.473Z,24.23
2024-02-28T06:26:52.936Z,23.88
2024-02-28T06:29:21.449Z,25.27
2024-02-28T06:31:51.841Z,22.20
2024-02-28T06:34:19.624Z,25.15
2024-02-28T06:36:47.144Z,24.63
2024-02-28T06:39:14.768Z,20.45
2024-02-28T06:41:43.472Z,20.42
2024-02-28T06:44:12.297Z,23.38
2024-02-28T06:46:39.676Z,21.98
2024-02-28T06:49:07.062Z,23.27
2024-02-28T06:51:34.454Z,26.23
2024-02-28T06:54:01.785Z,22.77
2024-02-28T06:56:29.170Z,23.77
2024-02-28T06:58:57.859Z,26.65
2024-02-28T07:01:25.307Z,25.33
2024-02-28T07:03:52.857Z,23.55
2024-02-28T07:06:20.574Z,23.33
2024-02-28T07:08:48.015Z,24.20
2024-02-28T07:11:15.550Z,24.48
2024-02-28T07:13:42.944Z,26.60
2024-02-28T07:16:11.615Z,26.98
2024-02-28T07:18:38.993Z,26.98
2024-02-28T07:21:07.902Z,24.55
2024-02-28T07:23:35.278Z,25.17
2024-02-28T07:26:09.430Z,24.73
2024-02-28T07:28:43.831Z,25.77
2024-02-28T07:31:17.861Z,24.15
2024-02-28T07:33:45.420Z,24.95
2024-02-28T07:36:13.091Z,24.30
2024-02-28T07:38:41.866Z,22.02
2024-02-28T07:41:09.265Z,23.30
2024-02-28T07:43:39.144Z,22.50
2024-02-28T07:46:09.018Z,23.85
2024-02-28T07:51:06.110Z,24.05
2024-02-28T07:56:00.720Z,22.35
2024-02-28T07:58:28.102Z,24.88
2024-02-28T08:00:55.535Z,27.88
2024-02-28T08:03:22.969Z,24.15
2024-02-28T08:05:50.575Z,21.05
2024-02-28T08:08:19.239Z,25.20
2024-02-28T08:10:47.923Z,24.38
2024-02-28T08:13:15.400Z,27.08
2024-02-28T08:15:42.767Z,28.80
2024-02-28T08:18:12.246Z,21.92
2024-02-28T08:20:39.623Z,22.48
2024-02-28T08:23:07.443Z,23.13
2024-02-28T08:25:36.176Z,22.60
2024-02-28T08:28:04.466Z,27.55
2024-02-28T08:30:32.100Z,23.30
2024-02-28T08:32:59.665Z,21.52
2024-02-28T08:35:27.859Z,19.95
2024-02-28T08:37:55.257Z,19.90
2024-02-28T08:40:22.639Z,21.73
2024-02-28T08:42:54.312Z,22.10
2024-02-28T08:45:22.016Z,16.77
2024-02-28T08:47:49.489Z,19.02
2024-02-28T08:50:16.935Z,19.63
2024-02-28T08:52:44.366Z,20.45
2024-02-28T08:55:11.766Z,15.23
2024-02-28T08:57:39.236Z,13.25
2024-02-28T09:00:10.082Z,13.73
2024-02-28T09:02:38.055Z,14.45
2024-02-28T09:05:05.770Z,15.10
2024-02-28T09:07:33.141Z,15.45
2024-02-28T09:10:00.707Z,14.38
2024-02-28T09:12:28.198Z,15.90
2024-02-28T09:14:58.647Z,14.90
2024-02-28T09:17:27.533Z,15.30
2024-02-28T09:19:55.187Z,16.10
2024-02-28T09:22:22.898Z,16.90
2024-02-28T09:24:50.483Z,16.92
2024-02-28T09:27:19.299Z,15.90
2024-02-28T09:29:46.816Z,15.55
2024-02-28T09:32:15.754Z,16.13
2024-02-28T09:34:44.504Z,14.80
2024-02-28T09:37:11.908Z,17.80
2024-02-28T09:39:39.890Z,20.05
2024-02-28T09:42:07.910Z,16.05
2024-02-28T09:44:35.924Z,15.05
2024-02-28T09:47:03.368Z,15.63
2024-02-28T09:49:33.055Z,17.05
2024-02-28T09:52:02.904Z,17.02
2024-02-28T09:54:30.645Z,16.75
2024-02-28T09:56:58.059Z,15.30
2024-02-28T09:59:32.304Z,19.92
2024-02-28T10:02:08.112Z,18.95
2024-02-28T10:04:35.931Z,17.77
2024-02-28T10:07:14.865Z,16.95
2024-02-28T10:09:42.431Z,17.63
2024-02-28T10:12:10.010Z,15.50
2024-02-28T10:14:37.386Z,19.42
2024-02-28T10:17:05.149Z,17.08
2024-02-28T10:19:32.803Z,17.55
2024-02-28T10:22:00.939Z,16.88
2024-02-28T10:24:29.898Z,17.50
2024-02-28T10:26:57.669Z,16.98
2024-02-28T10:29:25.953Z,20.95
2024-02-28T10:31:53.519Z,18.30
2024-02-28T10:34:21.024Z,18.25
2024-02-28T10:36:48.810Z,18.30
2024-02-28T10:39:16.400Z,17.83
2024-02-28T10:41:49.911Z,16.40
2024-02-28T10:44:18.566Z,16.98
2024-02-28T10:46:46.578Z,18.90
2024-02-28T10:49:14.109Z,17.52
2024-02-28T10:51:42.034Z,16.75
2024-02-28T10:54:13.631Z,17.27
2024-02-28T10:56:42.427Z,18.88
2024-02-28T10:59:12.716Z,17.13
2024-02-28T11:01:42.851Z,18.05
2024-02-28T11:04:10.826Z,17.77
2024-02-28T11:06:49.374Z,17.42
2024-02-28T11:09:20.816Z,17.25
2024-02-28T11:11:48.291Z,17.75
2024-02-28T11:14:18.445Z,18.08
2024-02-28T11:16:47.500Z,19.83
2024-02-28T11:19:21.306Z,17.13
2024-02-28T11:21:53.597Z,19.02
2024-02-28T11:24:24.427Z,17.90
2024-02-28T11:26:52.667Z,19.33
2024-02-28T11:29:25.956Z,18.15
2024-02-28T11:31:53.433Z,18.25
2024-02-28T11:34:21.593Z,18.83
2024-02-28T11:36:49.996Z,18.60
2024-02-28T11:39:17.691Z,20.75
2024-02-28T11:41:47.175Z,17.75
2024-02-28T11:44:15.490Z,17.27
2024-02-28T11:46:47.639Z,18.13
2024-02-28T11:49:15.055Z,17.83
2024-02-28T11:51:43.524Z,18.52
2024-02-28T11:54:11.957Z,19.63
2024-02-28T11:56:40.551Z,18.83
2024-02-28T11:59:10.561Z,20.42
2024-02-28T12:01:39.018Z,18.58
2024-02-28T12:04:08.457Z,20.47
2024-02-28T12:06:37.387Z,19.92
2024-02-28T12:09:05.203Z,17.80
2024-02-28T12:11:33.520Z,18.90
2024-02-28T12:14:02.285Z,18.20
2024-02-28T12:16:29.686Z,19.90
2024-02-28T12:18:57.151Z,19.92
2024-02-28T12:21:25.949Z,22.80
2024-02-28T12:23:53.382Z,22.37
2024-02-28T12:26:20.971Z,21.70
2024-02-28T12:28:48.349Z,24.52
2024-02-28T12:31:15.852Z,21.10
2024-02-28T12:33:43.768Z,24.45
2024-02-28T12:36:11.269Z,23.25
2024-02-28T12:38:41.573Z,25.65
2024-02-28T12:41:09.096Z,23.77
2024-02-28T12:43:36.488Z,21.95
2024-02-28T12:46:04.082Z,22.30
2024-02-28T12:48:32.319Z,22.65
2024-02-28T12:51:04.778Z,22.73
2024-02-28T12:53:32.182Z,22.70
2024-02-28T12:56:00.916Z,22.80
2024-02-28T12:58:28.526Z,21.85
2024-02-28T13:00:56.080Z,23.00
2024-02-28T13:03:23.689Z,23.02
2024-02-28T13:05:51.405Z,23.25
2024-02-28T13:08:18.801Z,22.50
2024-02-28T13:10:46.192Z,20.70
2024-02-28T13:13:14.937Z,21.98
2024-02-28T13:15:42.464Z,21.05
2024-02-28T13:18:12.029Z,22.00
2024-02-28T13:20:41.028Z,22.88
2024-02-28T13:23:08.576Z,26.23
2024-02-28T13:25:36.044Z,22.63
2024-02-28T13:28:03.584Z,21.92
2024-02-28T13:30:32.422Z,22.25
2024-02-28T13:32:59.908Z,28.65
2024-02-28T13:35:27.504Z,27.98
2024-02-28T13:37:55.724Z,22.70
2024-02-28T13:40:23.205Z,30.58
2024-02-28T13:42:50.664Z,25.08
2024-02-28T13:45:18.218Z,24.02
2024-02-28T13:47:47.049Z,23.70
2024-02-28T13:50:15.156Z,22.10
2024-02-28T13:52:42.572Z,24.05
2024-02-28T13:55:11.185Z,24.17
2024-02-28T13:57:38.991Z,25.13
2024-02-28T14:00:09.478Z,25.35
2024-02-28T14:02:37.064Z,23.02
2024-02-28T14:05:06.252Z,26.35
2024-02-28T14:07:33.757Z,25.42
2024-02-28T14:10:01.191Z,28.77
2024-02-28T14:12:28.701Z,27.23
2024-02-28T14:14:56.149Z,25.10
2024-02-28T14:17:23.643Z,27.17
2024-02-28T14:19:51.021Z,27.25
2024-02-28T14:22:19.933Z,28.98
2024-02-28T14:24:47.303Z,24.43
2024-02-28T14:27:15.952Z,27.65
2024-02-28T14:29:43.414Z,27.98
2024-02-28T14:32:10.902Z,24.70
2024-02-28T14:34:38.320Z,26.35
2024-02-28T14:37:05.939Z,26.15
2024-02-28T14:39:35.273Z,27.30
2024-02-28T14:42:02.667Z,28.83
2024-02-28T14:44:30.113Z,26.55
2024-02-28T14:46:58.304Z,26.75
2024-02-28T14:49:25.697Z,26.85
2024-02-28T14:51:53.418Z,29.15
2024-02-28T14:54:23.853Z,26.65
2024-02-28T14:56:52.674Z,30.98
2024-02-28T14:59:20.131Z,28.08
2024-02-28T15:01:47.663Z,27.73
2024-02-28T15:04:16.620Z,27.25
2024-02-28T15:06:44.172Z,28.70
2024-02-28T15:09:12.303Z,27.60
2024-02-28T15:11:39.954Z,25.15
2024-02-28T15:14:08.819Z,26.70
2024-02-28T15:16:36.242Z,26.85
2024-02-28T15:19:03.702Z,29.77
2024-02-28T15:21:31.179Z,28.35
2024-02-28T15:23:58.611Z,27.70
2024-02-28T15:26:31.832Z,26.85
2024-02-28T15:29:07.249Z,31.48
2024-02-28T15:31:37.371Z,28.23
2024-02-28T15:34:04.823Z,29.73
2024-02-28T15:36:32.435Z,29.05
2024-02-28T15:38:59.927Z,28.23
2024-02-28T15:41:27.475Z,28.83
2024-02-28T15:43:54.891Z,27.98
2024-02-28T15:46:22.362Z,28.67
2024-02-28T15:48:51.091Z,32.15
2024-02-28T15:51:18.533Z,32.17
2024-02-28T15:53:46.560Z,28.58
2024-02-28T15:56:14.306Z,33.60
2024-02-28T15:58:44.611Z,29.15
2024-02-28T16:01:12.636Z,29.15
2024-02-28T16:03:40.068Z,30.05
2024-02-28T16:06:09.702Z,31.17
2024-02-28T16:08:41.219Z,30.13
2024-02-28T16:11:08.679Z,34.13
2024-02-28T16:13:36.089Z,32.00
2024-02-28T16:16:04.123Z,32.63
2024-02-28T16:18:31.555Z,33.67
2024-02-28T16:21:00.530Z,35.60
2024-02-28T16:23:29.394Z,38.13
2024-02-28T16:25:58.973Z,29.57
2024-02-28T16:28:27.363Z,32.83
2024-02-28T16:30:56.176Z,31.00
2024-02-28T16:33:24.377Z,31.27
2024-02-28T16:35:51.861Z,38.70
2024-02-28T16:38:19.297Z,33.92
2024-02-28T16:40:48.038Z,32.42
2024-02-28T16:43:15.441Z,32.20
2024-02-28T16:45:42.934Z,31.27
2024-02-28T16:48:10.705Z,29.73
2024-02-28T16:50:38.140Z,31.17
2024-02-28T16:53:05.820Z,34.63
2024-02-28T16:55:33.212Z,39.22
2024-02-28T16:58:04.110Z,40.88
2024-02-28T17:00:31.588Z,44.70
2024-02-28T17:02:58.956Z,49.08
2024-02-28T17:05:26.360Z,43.42
2024-02-28T17:07:54.077Z,40.65
2024-02-28T17:10:21.425Z,48.28
2024-02-28T17:12:48.817Z,43.25
2024-02-28T17:15:17.982Z,43.50
2024-02-28T17:17:45.413Z,40.08
2024-02-28T17:20:12.809Z,38.58
2024-02-28T17:22:40.147Z,40.25
2024-02-28T17:25:08.054Z,40.13
2024-02-28T17:27:35.501Z,38.53
2024-02-28T17:30:05.173Z,47.75
2024-02-28T17:32:33.936Z,46.17
2024-02-28T17:35:04.864Z,75.80
2024-02-28T17:37:32.230Z,46.90
2024-02-28T17:39:59.631Z,47.28
2024-02-28T17:42:26.990Z,48.38
2024-02-28T17:44:54.638Z,41.72
2024-02-28T17:47:22.061Z,42.63
2024-02-28T17:49:50.794Z,40.38
2024-02-28T17:52:18.133Z,45.00
2024-02-28T17:54:45.578Z,43.60
2024-02-28T17:57:12.460Z,40.47
2024-02-28T17:59:40.309Z,39.30
2024-02-28T18:02:08.610Z,40.25
2024-02-28T18:04:36.005Z,38.50
2024-02-28T18:07:04.882Z,41.85
2024-02-28T18:09:32.354Z,36.77
2024-02-28T18:12:00.183Z,39.08
2024-02-28T18:14:27.713Z,38.35
2024-02-28T18:16:55.272Z,40.25
2024-02-28T18:19:23.341Z,44.00
2024-02-28T18:21:50.791Z,42.75
2024-02-28T18:24:19.558Z,41.08
2024-02-28T18:26:46.909Z,41.35
2024-02-28T18:29:14.289Z,36.67
2024-02-28T18:31:41.674Z,43.25
2024-02-28T18:34:09.527Z,40.50
2024-02-28T18:36:36.990Z,39.60
2024-02-28T18:39:05.420Z,40.65
2024-02-28T18:41:34.101Z,36.20
2024-02-28T18:44:01.440Z,36.78
2024-02-28T18:46:28.997Z,38.80
2024-02-28T18:48:56.423Z,34.05
2024-02-28T18:51:23.873Z,84.57
2024-02-28T18:53:51.303Z,93.53
2024-02-28T18:56:18.676Z,51.85
2024-02-28T18:58:47.417Z,38.15
2024-02-28T19:01:18.406Z,36.05
2024-02-28T19:03:47.203Z,42.80
2024-02-28T19:06:15.271Z,38.10
2024-02-28T19:08:42.663Z,37.88
2024-02-28T19:11:10.036Z,43.55
2024-02-28T19:13:37.449Z,39.38
2024-02-28T19:16:06.648Z,39.03
2024-02-28T19:18:36.788Z,36.55
2024-02-28T19:21:04.250Z,42.90
2024-02-28T19:23:31.867Z,38.47
2024-02-28T19:25:59.258Z,41.72
2024-02-28T19:28:26.617Z,37.47
2024-02-28T19:30:54.014Z,42.05
2024-02-28T19:33:23.118Z,57.88
2024-02-28T19:35:50.522Z,50.30
2024-02-28T19:38:17.872Z,54.60
2024-02-28T19:40:45.585Z,47.72
2024-02-28T19:43:13.034Z,43.28
2024-02-28T19:45:40.689Z,42.55
2024-02-28T19:48:08.452Z,38.45
2024-02-28T19:50:37.356Z,45.05
2024-02-28T19:53:05.304Z,43.67
2024-02-28T19:55:32.901Z,41.90
2024-02-28T19:58:00.348Z,34.38
2024-02-28T20:00:27.859Z,28.95
2024-02-28T20:02:55.780Z,32.13
2024-02-28T20:05:23.143Z,31.17
2024-02-28T20:07:51.876Z,33.70
2024-02-28T20:10:19.463Z,30.05
2024-02-28T20:12:47.024Z,29.58
2024-02-28T20:15:14.749Z,28.60
2024-02-28T20:17:42.197Z,29.45
2024-02-28T20:20:10.022Z,23.85
2024-02-28T20:22:37.368Z,24.52
2024-02-28T20:25:07.487Z,28.23
2024-02-28T20:27:35.032Z,28.13
2024-02-28T20:30:02.470Z,26.65
2024-02-28T20:32:29.867Z,25.60
2024-02-28T20:34:57.248Z,24.08
2024-02-28T20:37:24.630Z,26.98
2024-02-28T20:39:52.238Z,26.55
2024-02-28T20:42:20.945Z,26.85
2024-02-28T20:44:48.288Z,27.88
2024-02-28T20:47:15.687Z,26.60
2024-02-28T20:49:43.863Z,29.73
2024-02-28T20:52:11.309Z,39.58
2024-02-28T20:54:38.725Z,32.70
2024-02-28T20:57:12.654Z,26.58
2024-02-28T20:59:45.741Z,31.45
2024-02-28T21:02:13.588Z,29.73
2024-02-28T21:04:42.396Z,27.13
2024-02-28T21:07:09.957Z,31.43
2024-02-28T21:09:37.410Z,30.10
2024-02-28T21:12:05.485Z,27.42
2024-02-28T21:14:32.929Z,25.48
2024-02-28T21:17:01.645Z,27.60
2024-02-28T21:19:30.064Z,26.73
2024-02-28T21:21:57.452Z,28.27
2024-02-28T21:24:24.837Z,30.92
2024-02-28T21:26:52.254Z,30.40
2024-02-28T21:29:19.657Z,27.60
2024-02-28T21:31:46.992Z,26.73
2024-02-28T21:34:15.701Z,27.27
2024-02-28T21:36:43.195Z,26.73
2024-02-28T21:39:11.461Z,28.73
2024-02-28T21:41:38.851Z,29.02
2024-02-28T21:44:06.220Z,28.17
2024-02-28T21:46:33.608Z,26.05
2024-02-28T21:49:06.393Z,26.40
2024-02-28T21:51:41.786Z,29.42
2024-02-28T21:54:09.236Z,21.73
2024-02-28T21:56:38.732Z,24.40
2024-02-28T21:59:06.173Z,26.58
2024-02-28T22:01:33.648Z,24.88
2024-02-28T22:04:01.490Z,25.38
2024-02-28T22:06:30.547Z,26.88
2024-02-28T22:09:01.031Z,24.20
2024-02-28T22:11:28.681Z,24.35
2024-02-28T22:13:56.155Z,23.50
2024-02-28T22:16:23.591Z,22.27
2024-02-28T22:18:51.671Z,25.10
2024-02-28T22:21:19.210Z,24.20
2024-02-28T22:23:46.558Z,23.83
2024-02-28T22:26:15.440Z,25.38
2024-02-28T22:28:42.794Z,26.03
2024-02-28T22:31:10.605Z,25.77
2024-02-28T22:33:38.276Z,27.90
2024-02-28T22:36:09.107Z,26.42
2024-02-28T22:38:36.493Z,23.67
2024-02-28T22:41:03.954Z,26.42
2024-02-28T22:43:32.679Z,22.70
2024-02-28T22:46:00.059Z,26.52
2024-02-28T22:48:27.868Z,24.98
2024-02-28T22:50:55.229Z,24.00
2024-02-28T22:53:22.589Z,26.65
2024-02-28T22:55:50.118Z,23.55
2024-02-28T22:58:18.551Z,25.27
2024-02-28T23:00:48.439Z,21.55
2024-02-28T23:03:16.009Z,23.42
2024-02-28T23:05:43.438Z,25.20
2024-02-28T23:08:10.903Z,26.10
2024-02-28T23:10:38.280Z,22.95
2024-02-28T23:13:05.973Z,20.50
2024-02-28T23:15:34.316Z,20.58
2024-02-28T23:18:03.101Z,21.25
2024-02-28T23:20:34.890Z,21.25
2024-02-28T23:23:02.713Z,22.20
2024-02-28T23:25:30.411Z,20.67
2024-02-28T23:27:58.384Z,23.02
2024-02-28T23:30:25.866Z,20.98
2024-02-28T23:32:53.247Z,21.35
2024-02-28T23:35:22.155Z,20.70
2024-02-28T23:37:49.508Z,21.05
2024-02-28T23:40:17.267Z,20.42
2024-02-28T23:42:44.828Z,18.25
2024-02-28T23:45:12.240Z,21.52
2024-02-28T23:47:39.660Z,19.58
2024-02-28T23:50:07.400Z,23.27
2024-02-28T23:52:36.794Z,19.73
2024-02-28T23:55:04.304Z,19.17
2024-02-28T23:57:31.747Z,17.33
2024-02-28T23:59:59.143Z,16.80
